Airfield :
LOGIN :

Register | Disclaimer

   EN    FR    IT 

 










Legend :    VFR   Marginal VFR   IFR   Intensive IFR   Very Intensive IFR
Visi :
Ceiling :
>= 8 km
>= 3000ft
5 to 8 km
1000 to 3000 ft
1500m to 5 km
500 to 1000 ft
800 to 1500m
200 to 500 ft
< 800m
< 200 ft
Symbols :   Thunderstorms  Fog  Heavy snow  Heavy precipitations  Wind > 20 kt
SIGMETs :     Misc.  Thunderstorms  Icing  Turbulence  Mountain Waves  Volcanic Ashes







- Airport Elevation : 1470 ft
- IATA code : KLU


LOWK - Klagenfurt

CURRENT METAR :
  • 220250Z AUTO VRB02KT 9999 FEW060 SCT070 02/M00 Q1024

EXPIRED METARs :
  • 220220Z AUTO 28004KT 210V330 9999 FEW070 02/M00 Q1024
  • 220150Z AUTO 30003KT 270V330 9999 FEW070 02/M00 Q1024
  • 220120Z AUTO 30005KT 260V340 9999 SCT070 03/00 Q1024
  • 220050Z AUTO 30005KT 9999 FEW070 BKN080 03/00 Q1024
  • 220020Z AUTO 33003KT 9999 FEW070 OVC090 04/00 Q1025

TAF TAF LOWK
Valid from the 22 at 00:00 until the 23 at 00:00 UTC


212315Z 2200/2224 VRB02KT 9999 SCT080 SCT120 TX13/2215Z TN02/2206Z
TEMPO 2211/2217 01008G18KT
No reported NOTAMs for that airfield.



MET'MAP, your aeronautical weather chart ! - Copyright ORBIFLY December 2007 - Disclaimer

ORBIFLY MET'MAP TEAM :

Programming & Development : Alexandra Zaïnal
Concept & Development : Baudouin d'Aumeries
Co-Development & Prog : Marc-Olivier Méhu
Technical & hardware support : Manuel Goepfert

Contact : metmap@orbifly.com




SOURCES & CREDITS :

   NOAA